Alvarado, Texas
Current Conditions -  °F | °C
As of 8:53 AM on Saturday 20 Dec 2014 (Local Time) from KFWS Reporting Station
Haze Haze  
Wind Chill: 42°   Ceiling: 1700
Heat Index: 45°   Visibility: 4mi
Dew Point: 43°   Wind: 5mph
Humidity: 93%   Direction: 20°NNE
Pressure: 30.25"   Gusts: NA
Location:  32.41°N, 97.21°W
Report Text: KFWS 201453Z 02004KT 4SM BR OVC017 07/06 A3025
Loading
Personal Weather Stations






























Interactive Weather Map New forecast layout! Learn more

10-Day Weather Forecast

Advertisements
Track Severe Weather on mobile